Time;durP1;ratioP1;P1;durP2;ratioP2;P2;SDS_P1;SDS_P2;PMS_P1;PMS_P2;Temp;Humidity;BMP_temperature;BMP_pressure;BME280_temperature;BME280_humidity;BME280_pressure;Samples;Min_cycle;Max_cycle;Signal;HPM_P1;HPM_P2
2022/07/31 00:01:20;;;;;;;;;;;19.30;99.90;;;;;;4950772;28;19983;-61
2022/07/31 00:03:45;;;;;;;;;;;19.30;99.90;;;;;;4964156;28;20305;-61
2022/07/31 00:06:11;;;;;;;;;;;19.30;99.90;;;;;;4965153;28;19937;-61
2022/07/31 00:08:36;;;;;;;;;;;19.40;99.90;;;;;;4960735;28;20370;-61
2022/07/31 00:11:02;;;;;;;;;;;19.30;99.90;;;;;;4964618;28;19956;-61
2022/07/31 00:13:27;;;;;;;;;;;19.40;99.90;;;;;;4968035;28;20012;-61
2022/07/31 00:15:53;;;;;;;;;;;19.30;99.90;;;;;;4961759;28;19906;-60
2022/07/31 00:18:18;;;;;;;;;;;19.30;99.90;;;;;;4942344;28;19906;-61
2022/07/31 00:20:44;;;;;;;;;;;19.20;99.90;;;;;;4961403;28;20374;-61
2022/07/31 00:23:09;;;;;;;;;;;19.20;99.90;;;;;;4955972;28;19914;-61
2022/07/31 00:25:35;;;;;;;;;;;19.10;99.90;;;;;;4959128;28;19910;-60
2022/07/31 00:28:01;;;;;;;;;;;19.10;99.90;;;;;;4957889;28;19906;-61
2022/07/31 00:30:26;;;;;;;;;;;19.10;99.90;;;;;;4951634;28;20001;-60
2022/07/31 00:32:52;;;;;;;;;;;19.00;99.90;;;;;;4961558;28;19906;-60
2022/07/31 00:35:17;;;;;;;;;;;18.90;99.90;;;;;;4962319;28;20359;-61
2022/07/31 00:37:43;;;;;;;;;;;18.80;99.90;;;;;;4955204;28;20005;-61
2022/07/31 00:40:10;;;;;;;;;;;18.70;99.90;;;;;;4958289;28;19910;-61
2022/07/31 00:42:36;;;;;;;;;;;18.60;99.90;;;;;;4962363;28;19918;-60
2022/07/31 00:45:02;;;;;;;;;;;18.60;99.90;;;;;;4962114;28;20251;-61
2022/07/31 00:47:28;;;;;;;;;;;18.40;99.90;;;;;;4953161;28;19910;-60
2022/07/31 00:49:53;;;;;;;;;;;18.30;99.90;;;;;;4964347;28;20304;-61
2022/07/31 00:52:19;;;;;;;;;;;18.20;99.90;;;;;;4958896;28;20017;-61
2022/07/31 00:54:44;;;;;;;;;;;18.10;99.90;;;;;;4959851;28;19997;-61
2022/07/31 00:57:10;;;;;;;;;;;17.90;99.90;;;;;;4952004;28;20036;-60
2022/07/31 00:59:36;;;;;;;;;;;17.80;99.90;;;;;;4961977;28;19906;-61
2022/07/31 01:02:01;;;;;;;;;;;17.70;99.90;;;;;;4946229;28;19914;-61
2022/07/31 01:04:27;;;;;;;;;;;17.60;99.90;;;;;;4961321;28;19953;-61
2022/07/31 01:06:53;;;;;;;;;;;17.50;99.90;;;;;;4963451;28;20009;-61
2022/07/31 01:09:18;;;;;;;;;;;17.40;99.90;;;;;;4959552;28;19917;-60
2022/07/31 01:11:49;;;;;;;;;;;17.30;99.90;;;;;;4968381;28;19906;-61
2022/07/31 01:14:16;;;;;;;;;;;17.20;99.90;;;;;;4963442;28;20274;-61
2022/07/31 01:16:45;;;;;;;;;;;17.10;99.90;;;;;;4961324;28;20405;-61
2022/07/31 01:19:18;;;;;;;;;;;17.00;99.90;;;;;;4960799;28;19907;-60
2022/07/31 01:22:01;;;;;;;;;;;17.00;99.90;;;;;;4961665;28;19914;-62
2022/07/31 01:24:36;;;;;;;;;;;16.90;99.90;;;;;;4963718;28;19922;-61
2022/07/31 01:27:04;;;;;;;;;;;16.90;99.90;;;;;;4964758;28;19940;-61
2022/07/31 01:29:30;;;;;;;;;;;16.90;99.90;;;;;;4965302;28;19910;-61
2022/07/31 01:32:02;;;;;;;;;;;17.00;99.90;;;;;;4949322;28;19956;-61
2022/07/31 01:34:39;;;;;;;;;;;17.00;99.90;;;;;;4962542;28;19906;-61
2022/07/31 01:37:09;;;;;;;;;;;17.00;99.90;;;;;;4944246;29;19910;-61
2022/07/31 01:39:35;;;;;;;;;;;16.90;99.90;;;;;;4958230;28;19906;-61
2022/07/31 01:42:03;;;;;;;;;;;16.90;99.90;;;;;;4960218;28;20370;-60
2022/07/31 01:44:29;;;;;;;;;;;16.80;99.90;;;;;;4962299;28;19906;-61
2022/07/31 01:46:57;;;;;;;;;;;16.80;99.90;;;;;;4958847;28;20278;-61
2022/07/31 01:49:23;;;;;;;;;;;16.80;99.90;;;;;;4959439;28;19914;-60
2022/07/31 01:51:49;;;;;;;;;;;16.80;99.90;;;;;;4963082;28;19906;-61
2022/07/31 01:54:17;;;;;;;;;;;16.80;99.90;;;;;;4963146;28;20064;-61
2022/07/31 01:56:42;;;;;;;;;;;16.80;99.90;;;;;;4962793;28;20358;-62
2022/07/31 01:59:09;;;;;;;;;;;16.80;99.90;;;;;;4946044;29;19918;-61
2022/07/31 02:01:36;;;;;;;;;;;16.70;99.90;;;;;;4959874;28;19906;-61
2022/07/31 02:04:02;;;;;;;;;;;16.70;99.90;;;;;;4963066;28;20036;-61
2022/07/31 02:06:28;;;;;;;;;;;16.70;99.90;;;;;;4956840;28;20345;-61
2022/07/31 02:08:54;;;;;;;;;;;16.70;99.90;;;;;;4967518;28;20030;-61
2022/07/31 02:11:20;;;;;;;;;;;16.80;99.90;;;;;;4958404;28;20417;-61
2022/07/31 02:13:46;;;;;;;;;;;16.70;99.90;;;;;;4955105;28;19914;-61
2022/07/31 02:16:12;;;;;;;;;;;16.70;99.90;;;;;;4959072;28;20314;-61
2022/07/31 02:18:39;;;;;;;;;;;16.70;99.90;;;;;;4951759;28;19907;-61
2022/07/31 02:21:05;;;;;;;;;;;16.60;99.90;;;;;;4959134;28;20454;-60
2022/07/31 02:23:30;;;;;;;;;;;16.60;99.90;;;;;;4961661;28;19974;-61
2022/07/31 02:25:56;;;;;;;;;;;16.70;99.90;;;;;;4964080;28;19914;-60
2022/07/31 02:28:23;;;;;;;;;;;16.60;99.90;;;;;;4959778;28;19910;-60
2022/07/31 02:30:49;;;;;;;;;;;16.50;99.90;;;;;;4960848;28;19954;-60
2022/07/31 02:33:19;;;;;;;;;;;16.30;99.90;;;;;;4965678;28;19940;-60
2022/07/31 02:35:47;;;;;;;;;;;16.20;99.90;;;;;;4958679;28;19906;-60
2022/07/31 02:38:13;;;;;;;;;;;16.20;99.90;;;;;;4962909;28;19914;-61
2022/07/31 02:40:39;;;;;;;;;;;16.30;99.90;;;;;;4960296;28;19906;-62
2022/07/31 02:43:05;;;;;;;;;;;16.20;99.90;;;;;;4950720;28;19976;-61
2022/07/31 02:45:30;;;;;;;;;;;16.30;99.90;;;;;;4960090;28;19912;-60
2022/07/31 02:47:56;;;;;;;;;;;16.70;99.90;;;;;;4960870;28;20118;-61
2022/07/31 02:50:22;;;;;;;;;;;17.00;99.90;;;;;;4960939;28;19906;-61
2022/07/31 02:52:47;;;;;;;;;;;17.30;99.90;;;;;;4960391;28;19946;-60
2022/07/31 02:55:13;;;;;;;;;;;17.40;99.90;;;;;;4963805;28;20285;-60
2022/07/31 02:57:38;;;;;;;;;;;17.50;99.90;;;;;;4955449;28;19913;-60
2022/07/31 03:00:14;;;;;;;;;;;17.50;99.90;;;;;;4963241;28;19915;-61
2022/07/31 03:02:41;;;;;;;;;;;17.60;99.90;;;;;;4959704;28;19953;-60
2022/07/31 03:05:06;;;;;;;;;;;17.70;99.90;;;;;;4960350;28;20313;-61
2022/07/31 03:07:32;;;;;;;;;;;17.70;99.90;;;;;;4941919;29;20005;-61
2022/07/31 03:09:58;;;;;;;;;;;17.80;99.90;;;;;;4957934;28;19917;-61
2022/07/31 03:12:24;;;;;;;;;;;17.80;99.90;;;;;;4961981;28;20008;-61
2022/07/31 03:14:50;;;;;;;;;;;17.70;99.90;;;;;;4964310;28;19906;-61
2022/07/31 03:17:16;;;;;;;;;;;17.60;99.90;;;;;;4962641;28;19909;-60
2022/07/31 03:19:42;;;;;;;;;;;17.60;99.90;;;;;;4963580;28;19913;-61
2022/07/31 03:22:08;;;;;;;;;;;17.60;99.90;;;;;;4956164;28;19918;-61
2022/07/31 03:24:33;;;;;;;;;;;17.50;99.90;;;;;;4963669;28;19922;-61
2022/07/31 03:26:59;;;;;;;;;;;17.60;99.90;;;;;;4957788;28;19910;-61
2022/07/31 03:29:25;;;;;;;;;;;17.50;99.90;;;;;;4961420;28;19968;-61
2022/07/31 03:31:50;;;;;;;;;;;17.40;99.90;;;;;;4958384;28;19914;-61
2022/07/31 03:34:16;;;;;;;;;;;17.20;99.90;;;;;;4959121;28;19910;-61
2022/07/31 03:36:41;;;;;;;;;;;17.10;99.90;;;;;;4958612;28;20282;-62
2022/07/31 03:39:07;;;;;;;;;;;17.20;99.90;;;;;;4955552;28;20337;-60
2022/07/31 03:41:32;;;;;;;;;;;17.30;99.90;;;;;;4961488;28;19953;-60
2022/07/31 03:43:58;;;;;;;;;;;17.40;99.90;;;;;;4960527;28;19918;-61
2022/07/31 03:46:24;;;;;;;;;;;17.60;99.90;;;;;;4962120;28;19906;-61
2022/07/31 03:48:50;;;;;;;;;;;17.70;99.90;;;;;;4959538;28;19949;-62
2022/07/31 03:51:16;;;;;;;;;;;17.70;99.90;;;;;;4957394;28;19914;-62
2022/07/31 03:53:42;;;;;;;;;;;17.70;99.90;;;;;;4963609;28;19910;-61
2022/07/31 03:56:08;;;;;;;;;;;17.70;99.90;;;;;;4956901;28;20406;-60
2022/07/31 03:58:34;;;;;;;;;;;17.90;99.90;;;;;;4956591;28;19937;-61
2022/07/31 04:01:00;;;;;;;;;;;18.20;99.90;;;;;;4958575;28;19961;-60
2022/07/31 04:03:29;;;;;;;;;;;18.40;99.90;;;;;;4959639;28;19957;-61
2022/07/31 04:05:54;;;;;;;;;;;18.50;99.90;;;;;;4957449;28;19953;-60
2022/07/31 04:08:20;;;;;;;;;;;18.60;99.90;;;;;;4959491;28;19968;-61
2022/07/31 04:10:45;;;;;;;;;;;18.80;99.90;;;;;;4957089;28;19906;-60
2022/07/31 04:13:11;;;;;;;;;;;18.90;99.90;;;;;;4960366;28;19953;-61
2022/07/31 04:15:37;;;;;;;;;;;19.10;99.90;;;;;;4961896;28;20400;-60
2022/07/31 04:18:02;;;;;;;;;;;19.20;99.90;;;;;;4958385;28;20389;-61
2022/07/31 04:20:28;;;;;;;;;;;19.30;99.90;;;;;;4958795;28;20366;-60
2022/07/31 04:22:53;;;;;;;;;;;19.30;99.90;;;;;;4944874;28;19910;-61
2022/07/31 04:25:19;;;;;;;;;;;19.40;99.90;;;;;;4962384;28;19914;-61
2022/07/31 04:27:44;;;;;;;;;;;19.50;99.90;;;;;;4961737;28;19906;-61
2022/07/31 04:30:10;;;;;;;;;;;19.50;99.90;;;;;;4959665;28;19953;-61
2022/07/31 04:32:36;;;;;;;;;;;19.60;99.90;;;;;;4969260;28;19994;-61
2022/07/31 04:35:05;;;;;;;;;;;19.70;99.90;;;;;;4964232;28;19907;-61
2022/07/31 04:37:31;;;;;;;;;;;19.80;99.90;;;;;;4963975;28;19969;-60
2022/07/31 04:39:57;;;;;;;;;;;19.80;99.90;;;;;;4961785;28;20386;-60
2022/07/31 04:42:22;;;;;;;;;;;19.80;99.90;;;;;;4961739;28;19987;-60
2022/07/31 04:44:48;;;;;;;;;;;19.80;99.90;;;;;;4963900;28;19906;-60
2022/07/31 04:47:13;;;;;;;;;;;19.80;99.90;;;;;;4961518;28;19907;-60
2022/07/31 04:49:39;;;;;;;;;;;19.80;99.90;;;;;;4962624;28;19949;-61
2022/07/31 04:52:05;;;;;;;;;;;19.80;99.90;;;;;;4967064;28;19945;-60
2022/07/31 04:54:31;;;;;;;;;;;19.80;99.90;;;;;;4962496;28;19926;-61
2022/07/31 04:56:56;;;;;;;;;;;19.80;99.90;;;;;;4950531;28;19929;-60
2022/07/31 04:59:22;;;;;;;;;;;19.80;99.90;;;;;;4961282;28;19914;-61
2022/07/31 05:01:48;;;;;;;;;;;19.80;99.90;;;;;;4968437;28;19933;-61
2022/07/31 05:04:14;;;;;;;;;;;19.80;99.90;;;;;;4961450;28;19906;-61
2022/07/31 05:06:50;;;;;;;;;;;19.70;99.90;;;;;;4945040;28;19911;-61
2022/07/31 05:09:17;;;;;;;;;;;19.80;99.90;;;;;;4965010;28;19906;-60
2022/07/31 05:11:44;;;;;;;;;;;19.70;99.90;;;;;;4968636;28;20001;-61
2022/07/31 05:14:11;;;;;;;;;;;19.80;99.90;;;;;;4974754;28;19906;-61
2022/07/31 05:16:37;;;;;;;;;;;19.80;99.90;;;;;;4966098;28;19911;-61
2022/07/31 05:19:03;;;;;;;;;;;19.80;99.90;;;;;;4966787;28;19934;-61
2022/07/31 05:21:32;;;;;;;;;;;19.80;99.90;;;;;;4961412;28;20217;-61
2022/07/31 05:23:58;;;;;;;;;;;19.80;99.90;;;;;;4963606;28;20319;-61
2022/07/31 05:26:24;;;;;;;;;;;19.90;99.90;;;;;;4965979;28;19914;-61
2022/07/31 05:28:50;;;;;;;;;;;19.90;99.90;;;;;;4961485;28;19922;-61
2022/07/31 05:31:17;;;;;;;;;;;19.90;99.90;;;;;;4966935;28;19953;-61
2022/07/31 05:33:43;;;;;;;;;;;20.00;99.90;;;;;;4961366;28;19906;-61
2022/07/31 05:36:08;;;;;;;;;;;20.20;99.90;;;;;;4965380;28;19906;-60
2022/07/31 05:38:34;;;;;;;;;;;20.30;99.90;;;;;;4961717;28;20287;-61
2022/07/31 05:40:59;;;;;;;;;;;20.40;99.90;;;;;;4964511;28;20363;-61
2022/07/31 05:43:25;;;;;;;;;;;20.40;99.90;;;;;;4965479;28;19922;-60
2022/07/31 05:45:50;;;;;;;;;;;20.50;99.90;;;;;;4962580;28;19911;-60
2022/07/31 05:48:16;;;;;;;;;;;20.60;99.90;;;;;;4960696;28;19910;-60
2022/07/31 05:50:43;;;;;;;;;;;20.60;99.90;;;;;;4958240;28;19913;-61
2022/07/31 05:53:13;;;;;;;;;;;20.60;99.90;;;;;;4964084;28;20013;-61
2022/07/31 05:55:43;;;;;;;;;;;20.60;99.90;;;;;;4964697;28;19910;-61
2022/07/31 05:58:08;;;;;;;;;;;20.70;99.90;;;;;;4956310;28;19906;-61
2022/07/31 06:00:34;;;;;;;;;;;20.70;99.90;;;;;;4959716;28;19906;-61
2022/07/31 06:03:00;;;;;;;;;;;20.80;99.90;;;;;;4960693;28;19922;-61
2022/07/31 06:05:26;;;;;;;;;;;20.80;99.90;;;;;;4960835;28;20325;-61
2022/07/31 06:07:52;;;;;;;;;;;20.90;99.90;;;;;;4961658;28;20322;-60
2022/07/31 06:10:18;;;;;;;;;;;21.00;99.90;;;;;;4964959;28;19907;-61
2022/07/31 06:12:44;;;;;;;;;;;21.20;99.90;;;;;;4967697;28;20230;-61
2022/07/31 06:15:09;;;;;;;;;;;21.40;99.90;;;;;;4962073;28;20149;-61
2022/07/31 06:17:38;;;;;;;;;;;21.50;99.90;;;;;;4958709;28;20310;-60
2022/07/31 06:20:04;;;;;;;;;;;21.50;99.90;;;;;;4960579;28;19906;-61
2022/07/31 06:22:29;;;;;;;;;;;21.60;99.90;;;;;;4962093;28;20373;-61
2022/07/31 06:24:55;;;;;;;;;;;21.60;99.90;;;;;;4964776;28;19922;-61
2022/07/31 06:27:21;;;;;;;;;;;21.70;99.90;;;;;;4955152;28;19957;-61
2022/07/31 06:29:46;;;;;;;;;;;21.60;99.90;;;;;;4956878;28;19910;-60
2022/07/31 06:32:12;;;;;;;;;;;21.60;99.90;;;;;;4958006;28;19961;-60
2022/07/31 06:34:38;;;;;;;;;;;21.60;99.90;;;;;;4965550;28;19960;-60
2022/07/31 06:37:03;;;;;;;;;;;21.60;99.90;;;;;;4964853;28;19965;-61
2022/07/31 06:39:29;;;;;;;;;;;21.80;99.90;;;;;;4967081;28;19914;-61
2022/07/31 06:41:54;;;;;;;;;;;22.10;99.90;;;;;;4971303;28;20270;-60
2022/07/31 06:44:20;;;;;;;;;;;22.50;99.90;;;;;;4968418;28;19915;-61
2022/07/31 06:46:45;;;;;;;;;;;22.90;99.90;;;;;;4970217;28;19913;-61
2022/07/31 06:49:11;;;;;;;;;;;23.00;99.90;;;;;;4971794;28;19918;-61
2022/07/31 06:51:37;;;;;;;;;;;22.80;99.90;;;;;;4955727;28;19910;-60
2022/07/31 06:54:04;;;;;;;;;;;22.90;99.90;;;;;;4971493;28;19925;-61
2022/07/31 06:56:30;;;;;;;;;;;22.70;99.90;;;;;;4964883;28;19940;-61
2022/07/31 06:58:56;;;;;;;;;;;22.50;99.90;;;;;;4972347;28;20507;-61
2022/07/31 07:01:21;;;;;;;;;;;22.60;99.90;;;;;;4971137;28;20016;-61
2022/07/31 07:03:47;;;;;;;;;;;22.70;99.90;;;;;;4968509;28;20362;-61
2022/07/31 07:06:12;;;;;;;;;;;22.80;99.90;;;;;;4971052;28;19925;-61
2022/07/31 07:08:38;;;;;;;;;;;23.00;99.90;;;;;;4966329;28;19917;-61
2022/07/31 07:11:03;;;;;;;;;;;22.90;99.90;;;;;;4969111;28;19915;-61
2022/07/31 07:13:29;;;;;;;;;;;22.80;99.90;;;;;;4968592;28;19914;-61
2022/07/31 07:15:55;;;;;;;;;;;22.80;99.90;;;;;;4970901;28;19997;-61
2022/07/31 07:18:20;;;;;;;;;;;22.80;99.90;;;;;;4971427;28;19918;-61
2022/07/31 07:20:49;;;;;;;;;;;22.90;99.90;;;;;;4964296;28;20363;-61
2022/07/31 07:23:15;;;;;;;;;;;22.90;99.90;;;;;;4965073;28;19926;-61
2022/07/31 07:25:40;;;;;;;;;;;22.80;99.90;;;;;;4962656;28;19971;-61
2022/07/31 07:28:08;;;;;;;;;;;22.60;99.90;;;;;;4968114;28;19914;-61
2022/07/31 07:30:34;;;;;;;;;;;22.60;99.90;;;;;;4962226;28;19910;-61
2022/07/31 07:33:00;;;;;;;;;;;22.70;99.90;;;;;;4967345;28;20341;-61
2022/07/31 07:35:25;;;;;;;;;;;22.80;99.90;;;;;;4971332;28;20405;-61
2022/07/31 07:37:53;;;;;;;;;;;22.80;99.90;;;;;;4967650;28;19914;-61
2022/07/31 07:40:19;;;;;;;;;;;22.80;99.90;;;;;;4965898;28;19910;-60
2022/07/31 07:42:45;;;;;;;;;;;22.90;99.90;;;;;;4970785;28;19921;-61
2022/07/31 07:45:11;;;;;;;;;;;23.10;99.90;;;;;;4968944;28;20008;-61
2022/07/31 07:47:36;;;;;;;;;;;23.30;99.90;;;;;;4968452;28;20260;-61
2022/07/31 07:50:03;;;;;;;;;;;23.40;99.90;;;;;;4969899;28;20375;-61
2022/07/31 07:52:28;;;;;;;;;;;23.40;99.90;;;;;;4970059;28;19932;-61
2022/07/31 07:54:54;;;;;;;;;;;23.50;99.90;;;;;;4953697;28;19918;-61
2022/07/31 07:57:19;;;;;;;;;;;23.30;99.90;;;;;;4965710;28;19989;-61
2022/07/31 07:59:45;;;;;;;;;;;23.40;99.90;;;;;;4971632;28;20017;-61
2022/07/31 08:02:11;;;;;;;;;;;23.50;99.90;;;;;;4969906;28;19914;-61
2022/07/31 08:04:37;;;;;;;;;;;23.70;99.90;;;;;;4969715;28;19921;-61
2022/07/31 08:07:02;;;;;;;;;;;24.00;99.90;;;;;;4971026;28;19961;-61
2022/07/31 08:09:28;;;;;;;;;;;24.30;99.90;;;;;;4966957;28;19910;-61
2022/07/31 08:11:55;;;;;;;;;;;24.10;99.90;;;;;;4965199;28;19906;-61
2022/07/31 08:14:20;;;;;;;;;;;24.00;99.90;;;;;;4963078;28;19913;-62
2022/07/31 08:16:46;;;;;;;;;;;24.10;99.90;;;;;;4961777;28;19960;-61
2022/07/31 08:19:11;;;;;;;;;;;24.30;99.90;;;;;;4950552;28;20345;-61
2022/07/31 08:21:38;;;;;;;;;;;24.10;99.90;;;;;;4963474;28;19906;-61
2022/07/31 08:24:04;;;;;;;;;;;23.90;99.90;;;;;;4959328;28;19914;-61
2022/07/31 08:29:13;;;;;;;;;;;24.30;99.90;;;;;;4960040;28;19914;-62
2022/07/31 08:31:39;;;;;;;;;;;24.10;99.90;;;;;;4960646;28;19918;-61
2022/07/31 08:34:04;;;;;;;;;;;24.10;99.90;;;;;;4958732;28;20374;-61
2022/07/31 08:36:30;;;;;;;;;;;24.10;99.90;;;;;;4963172;28;19934;-62
2022/07/31 08:38:56;;;;;;;;;;;23.90;99.90;;;;;;4959658;28;20383;-61
2022/07/31 08:41:21;;;;;;;;;;;23.90;99.90;;;;;;4959819;28;19958;-61
2022/07/31 08:43:47;;;;;;;;;;;23.80;99.90;;;;;;4966219;28;19954;-61
2022/07/31 08:46:12;;;;;;;;;;;23.90;99.90;;;;;;4961019;28;19917;-61
2022/07/31 08:48:42;;;;;;;;;;;23.80;99.90;;;;;;4965482;28;19910;-61
2022/07/31 08:51:11;;;;;;;;;;;23.70;99.90;;;;;;4967055;28;19914;-60
2022/07/31 08:53:37;;;;;;;;;;;23.80;99.90;;;;;;4962709;28;20349;-60
2022/07/31 08:56:04;;;;;;;;;;;23.90;99.90;;;;;;4945141;28;19918;-60
2022/07/31 08:58:30;;;;;;;;;;;24.10;99.90;;;;;;4963863;28;20004;-61
2022/07/31 09:00:56;;;;;;;;;;;23.90;99.90;;;;;;4965528;28;19949;-60
2022/07/31 09:03:22;;;;;;;;;;;23.40;99.90;;;;;;4968202;28;19914;-60
2022/07/31 09:05:47;;;;;;;;;;;23.20;99.90;;;;;;4963647;28;19917;-60
2022/07/31 09:08:13;;;;;;;;;;;23.20;99.90;;;;;;4967678;28;19914;-60
2022/07/31 09:10:38;;;;;;;;;;;23.30;99.90;;;;;;4945272;28;19910;-59
2022/07/31 09:13:11;;;;;;;;;;;23.50;99.90;;;;;;4968757;28;19933;-60
2022/07/31 09:15:37;;;;;;;;;;;23.40;99.90;;;;;;4970239;28;20310;-60
2022/07/31 09:18:13;;;;;;;;;;;23.20;99.90;;;;;;4973392;28;19906;-60
2022/07/31 09:20:39;;;;;;;;;;;23.20;99.90;;;;;;4951384;28;19961;-60
2022/07/31 09:23:05;;;;;;;;;;;23.30;99.90;;;;;;4962633;28;20001;-60
2022/07/31 09:25:31;;;;;;;;;;;23.40;99.90;;;;;;4953009;28;20470;-60
2022/07/31 09:28:04;;;;;;;;;;;23.40;99.90;;;;;;4966018;28;19910;-61
2022/07/31 09:30:31;;;;;;;;;;;23.70;99.90;;;;;;4965748;28;19915;-60
2022/07/31 09:33:16;;;;;;;;;;;23.90;99.90;;;;;;4971848;28;20379;-60
2022/07/31 09:35:48;;;;;;;;;;;24.00;99.90;;;;;;4965518;28;19944;-60
2022/07/31 09:38:14;;;;;;;;;;;23.80;99.90;;;;;;4954025;28;19910;-60
2022/07/31 09:40:42;;;;;;;;;;;23.90;99.90;;;;;;4967496;28;19911;-61
2022/07/31 09:43:14;;;;;;;;;;;24.20;99.90;;;;;;4963452;28;19918;-60
2022/07/31 09:45:42;;;;;;;;;;;24.10;99.90;;;;;;4965406;28;19906;-61
2022/07/31 09:48:11;;;;;;;;;;;24.00;99.90;;;;;;4953889;28;19918;-60
2022/07/31 09:50:37;;;;;;;;;;;24.00;99.90;;;;;;4953414;28;20251;-60
2022/07/31 09:53:05;;;;;;;;;;;24.00;99.90;;;;;;4967927;28;19917;-60
2022/07/31 09:55:30;;;;;;;;;;;24.20;99.90;;;;;;4962697;28;19925;-60
2022/07/31 09:57:57;;;;;;;;;;;23.80;99.90;;;;;;4951218;28;20410;-60
2022/07/31 10:00:23;;;;;;;;;;;23.70;99.90;;;;;;4954993;28;19982;-60
2022/07/31 10:02:50;;;;;;;;;;;23.70;99.90;;;;;;4950580;28;19918;-60
2022/07/31 10:05:16;;;;;;;;;;;23.40;99.90;;;;;;4969375;28;19993;-60
2022/07/31 10:07:42;;;;;;;;;;;23.40;99.90;;;;;;4969225;28;19917;-60
2022/07/31 10:10:08;;;;;;;;;;;23.50;99.90;;;;;;4971342;28;19914;-60
2022/07/31 10:12:35;;;;;;;;;;;23.70;99.90;;;;;;4956335;28;19925;-61
2022/07/31 10:15:05;;;;;;;;;;;24.00;99.90;;;;;;4956666;28;19924;-61
2022/07/31 10:17:32;;;;;;;;;;;23.80;99.90;;;;;;4952531;28;19981;-61
2022/07/31 10:20:01;;;;;;;;;;;24.10;99.90;;;;;;4954275;28;19921;-61
2022/07/31 10:22:30;;;;;;;;;;;24.40;99.90;;;;;;4954133;28;19918;-61
2022/07/31 10:25:00;;;;;;;;;;;24.70;99.90;;;;;;4956893;28;20536;-61
2022/07/31 10:27:26;;;;;;;;;;;24.80;99.90;;;;;;4953382;28;19914;-61
2022/07/31 10:29:52;;;;;;;;;;;24.90;99.90;;;;;;4958326;28;19917;-61
2022/07/31 10:32:18;;;;;;;;;;;24.70;99.90;;;;;;4940484;28;20700;-61
2022/07/31 10:34:43;;;;;;;;;;;24.70;99.90;;;;;;4956839;28;20515;-61
2022/07/31 10:37:13;;;;;;;;;;;24.70;99.90;;;;;;4954701;28;20366;-61
2022/07/31 10:39:48;;;;;;;;;;;24.90;99.90;;;;;;4945154;28;20438;-61
2022/07/31 10:42:18;;;;;;;;;;;25.30;99.90;;;;;;4971180;28;19997;-61
2022/07/31 10:44:51;;;;;;;;;;;25.50;99.90;;;;;;4967250;28;20278;-61
2022/07/31 10:47:16;;;;;;;;;;;24.80;99.90;;;;;;4957364;28;20675;-61
2022/07/31 10:49:42;;;;;;;;;;;24.50;99.90;;;;;;4952918;28;19946;-61
2022/07/31 10:52:08;;;;;;;;;;;24.80;99.90;;;;;;4961799;28;19936;-61
2022/07/31 10:54:37;;;;;;;;;;;24.90;99.90;;;;;;4959230;28;20264;-61
2022/07/31 10:57:07;;;;;;;;;;;25.00;99.90;;;;;;4955656;28;20007;-61
2022/07/31 10:59:32;;;;;;;;;;;25.00;99.90;;;;;;4964568;28;19957;-60
2022/07/31 11:01:58;;;;;;;;;;;25.40;99.90;;;;;;4959876;28;20409;-61
2022/07/31 11:04:27;;;;;;;;;;;25.90;99.90;;;;;;4946767;28;19938;-61
2022/07/31 11:06:53;;;;;;;;;;;26.60;98.80;;;;;;4953942;28;20453;-61
2022/07/31 11:09:22;;;;;;;;;;;27.10;98.10;;;;;;4956747;28;19950;-60
2022/07/31 11:11:48;;;;;;;;;;;27.10;97.30;;;;;;4955340;28;19914;-60
2022/07/31 11:14:13;;;;;;;;;;;26.60;97.50;;;;;;4962271;28;19916;-60
2022/07/31 11:16:52;;;;;;;;;;;26.80;97.40;;;;;;4955963;28;19914;-60
2022/07/31 11:19:17;;;;;;;;;;;26.90;97.10;;;;;;4958407;28;19917;-60
2022/07/31 11:21:43;;;;;;;;;;;26.20;97.50;;;;;;4940804;28;19914;-60
2022/07/31 11:24:15;;;;;;;;;;;26.30;97.90;;;;;;4942348;28;20449;-60
2022/07/31 11:26:41;;;;;;;;;;;26.50;97.80;;;;;;4952769;28;20008;-60
2022/07/31 11:29:07;;;;;;;;;;;26.10;97.90;;;;;;4957347;28;20037;-60
2022/07/31 11:31:33;;;;;;;;;;;25.80;98.70;;;;;;4957874;28;19936;-60
2022/07/31 11:34:01;;;;;;;;;;;25.90;99.00;;;;;;4964165;28;19910;-62
2022/07/31 11:36:28;;;;;;;;;;;26.20;98.80;;;;;;4952688;28;20016;-62
2022/07/31 11:38:59;;;;;;;;;;;26.80;98.00;;;;;;4966135;28;19918;-62
2022/07/31 11:41:28;;;;;;;;;;;26.90;97.40;;;;;;4959824;28;19914;-62
2022/07/31 11:43:56;;;;;;;;;;;27.50;96.60;;;;;;4967013;28;19973;-62
2022/07/31 11:46:24;;;;;;;;;;;27.10;96.70;;;;;;4962453;28;19914;-62
2022/07/31 11:48:50;;;;;;;;;;;26.50;96.80;;;;;;4963514;28;19906;-62
2022/07/31 11:51:20;;;;;;;;;;;26.60;97.20;;;;;;4957101;28;20004;-62
2022/07/31 11:53:46;;;;;;;;;;;26.60;97.00;;;;;;4963019;28;20012;-62
2022/07/31 11:56:11;;;;;;;;;;;26.40;97.30;;;;;;4962398;28;20037;-62
2022/07/31 11:58:40;;;;;;;;;;;26.20;98.50;;;;;;4948866;28;20365;-62
2022/07/31 12:01:06;;;;;;;;;;;25.70;98.00;;;;;;4957146;28;20005;-60
2022/07/31 12:03:33;;;;;;;;;;;25.80;98.70;;;;;;4961361;28;20665;-60
2022/07/31 12:05:58;;;;;;;;;;;25.90;98.50;;;;;;4958153;28;20000;-60
2022/07/31 12:08:25;;;;;;;;;;;26.20;98.20;;;;;;4942304;28;20056;-61
2022/07/31 12:10:52;;;;;;;;;;;26.50;97.80;;;;;;4953531;28;20009;-61
2022/07/31 12:13:18;;;;;;;;;;;27.00;97.30;;;;;;4936038;28;20417;-61
2022/07/31 12:16:01;;;;;;;;;;;26.90;96.40;;;;;;4958341;28;19914;-62
2022/07/31 12:18:28;;;;;;;;;;;26.20;97.40;;;;;;4940996;28;19961;-63
2022/07/31 12:20:58;;;;;;;;;;;25.70;98.30;;;;;;4958715;28;19914;-63
2022/07/31 12:23:24;;;;;;;;;;;25.80;99.90;;;;;;4956125;28;19925;-61
2022/07/31 12:25:50;;;;;;;;;;;25.30;99.90;;;;;;4956968;28;19914;-60
2022/07/31 12:28:16;;;;;;;;;;;25.10;99.90;;;;;;4963730;28;20294;-60
2022/07/31 12:30:42;;;;;;;;;;;25.00;99.90;;;;;;4963263;28;19933;-60
2022/07/31 12:33:08;;;;;;;;;;;24.80;99.90;;;;;;4962516;28;19917;-60
2022/07/31 12:35:41;;;;;;;;;;;24.90;99.90;;;;;;4964107;28;19918;-62
2022/07/31 12:38:06;;;;;;;;;;;24.70;99.90;;;;;;4965265;28;19914;-62
2022/07/31 12:40:32;;;;;;;;;;;24.50;99.90;;;;;;4964770;28;20309;-60
2022/07/31 12:42:58;;;;;;;;;;;24.50;99.90;;;;;;4959328;28;19928;-61
2022/07/31 12:45:34;;;;;;;;;;;24.60;99.90;;;;;;4960754;28;19914;-60
2022/07/31 12:48:00;;;;;;;;;;;24.10;99.90;;;;;;4940337;28;19936;-60
2022/07/31 12:50:27;;;;;;;;;;;24.30;99.90;;;;;;4945092;28;20366;-60
2022/07/31 12:52:53;;;;;;;;;;;24.30;99.90;;;;;;4963251;28;19918;-62
2022/07/31 12:55:19;;;;;;;;;;;24.50;99.90;;;;;;4966963;28;19914;-63
2022/07/31 12:57:45;;;;;;;;;;;24.90;99.90;;;;;;4962281;28;20394;-63
2022/07/31 13:00:11;;;;;;;;;;;25.30;99.90;;;;;;4961903;28;19918;-63
2022/07/31 13:02:36;;;;;;;;;;;25.80;99.90;;;;;;4944859;28;20769;-61
2022/07/31 13:05:02;;;;;;;;;;;26.40;99.90;;;;;;4961553;28;19962;-61
2022/07/31 13:07:27;;;;;;;;;;;27.00;99.60;;;;;;4967996;28;20032;-61
2022/07/31 13:09:53;;;;;;;;;;;27.20;98.30;;;;;;4961998;28;19989;-61
2022/07/31 13:12:18;;;;;;;;;;;27.10;97.80;;;;;;4966153;28;19968;-61
2022/07/31 13:14:44;;;;;;;;;;;27.60;97.70;;;;;;4964646;28;19914;-61
2022/07/31 13:17:10;;;;;;;;;;;27.70;97.20;;;;;;4957449;28;20306;-61
2022/07/31 13:19:35;;;;;;;;;;;27.80;96.60;;;;;;4956300;28;19918;-62
2022/07/31 13:22:01;;;;;;;;;;;27.70;96.30;;;;;;4954834;28;19918;-60
2022/07/31 13:24:27;;;;;;;;;;;27.40;97.00;;;;;;4956079;28;19925;-63
2022/07/31 13:26:52;;;;;;;;;;;27.40;96.60;;;;;;4945166;28;20361;-61
2022/07/31 13:29:19;;;;;;;;;;;27.50;96.40;;;;;;4961640;28;19914;-61
2022/07/31 13:31:44;;;;;;;;;;;27.20;97.50;;;;;;4940914;28;20346;-61
2022/07/31 13:34:10;;;;;;;;;;;27.70;96.80;;;;;;4955144;28;19918;-61
2022/07/31 13:36:36;;;;;;;;;;;27.60;96.50;;;;;;4959679;28;19926;-61
2022/07/31 13:39:01;;;;;;;;;;;27.80;96.30;;;;;;4959954;28;20148;-61
2022/07/31 13:41:29;;;;;;;;;;;27.50;96.10;;;;;;4946579;28;19921;-61
2022/07/31 13:43:55;;;;;;;;;;;27.40;96.60;;;;;;4958850;28;19921;-61
2022/07/31 13:46:21;;;;;;;;;;;27.30;97.40;;;;;;4962081;28;20326;-61
2022/07/31 13:48:47;;;;;;;;;;;26.90;97.40;;;;;;4956760;28;20425;-61
2022/07/31 13:51:13;;;;;;;;;;;26.60;97.80;;;;;;4961873;28;19910;-61
2022/07/31 13:53:38;;;;;;;;;;;26.70;98.20;;;;;;4943624;28;19914;-61
2022/07/31 13:56:04;;;;;;;;;;;26.80;97.90;;;;;;4960418;28;19914;-61
2022/07/31 13:58:30;;;;;;;;;;;26.40;98.40;;;;;;4961685;28;19918;-61
2022/07/31 14:00:56;;;;;;;;;;;27.00;98.20;;;;;;4962456;28;20628;-61
2022/07/31 14:03:22;;;;;;;;;;;29.00;95.70;;;;;;4962489;28;19956;-61
2022/07/31 14:05:48;;;;;;;;;;;29.00;94.90;;;;;;4957878;28;19918;-61
2022/07/31 14:08:13;;;;;;;;;;;28.70;95.40;;;;;;4964788;28;19921;-63
2022/07/31 14:10:39;;;;;;;;;;;28.30;95.80;;;;;;4969196;28;20827;-63
2022/07/31 14:13:04;;;;;;;;;;;28.80;95.10;;;;;;4957248;28;20701;-61
2022/07/31 14:15:30;;;;;;;;;;;30.00;94.30;;;;;;4965771;28;19918;-61